sensor_id;sensor_type;location;lat;lon;timestamp;pressure;altitude;pressure_sealevel;temperature
40199;BMP280;25906;43.536;26.068;2023-11-19T00:02:45;98567.38;;;3.12
40199;BMP280;25906;43.536;26.068;2023-11-19T00:05:30;98565.88;;;3.08
40199;BMP280;25906;43.536;26.068;2023-11-19T00:08:16;98565.13;;;3.07
40199;BMP280;25906;43.536;26.068;2023-11-19T00:11:01;98554.31;;;3.09
40199;BMP280;25906;43.536;26.068;2023-11-19T00:13:48;98566.63;;;3.12
40199;BMP280;25906;43.536;26.068;2023-11-19T00:16:34;98578.22;;;3.14
40199;BMP280;25906;43.536;26.068;2023-11-19T00:19:20;98580.44;;;3.09
40199;BMP280;25906;43.536;26.068;2023-11-19T00:22:05;98578.22;;;3.14
40199;BMP280;25906;43.536;26.068;2023-11-19T00:24:51;98574.53;;;3.19
40199;BMP280;25906;43.536;26.068;2023-11-19T00:27:36;98585.69;;;3.16
40199;BMP280;25906;43.536;26.068;2023-11-19T00:30:22;98575.25;;;3.16
40199;BMP280;25906;43.536;26.068;2023-11-19T00:33:08;98598.28;;;2.96
40199;BMP280;25906;43.536;26.068;2023-11-19T00:35:53;98581.88;;;2.96
40199;BMP280;25906;43.536;26.068;2023-11-19T00:38:39;98581.88;;;2.92
40199;BMP280;25906;43.536;26.068;2023-11-19T00:41:24;98582.25;;;2.91
40199;BMP280;25906;43.536;26.068;2023-11-19T00:44:10;98585.63;;;2.91
40199;BMP280;25906;43.536;26.068;2023-11-19T00:46:56;98590.81;;;2.88
40199;BMP280;25906;43.536;26.068;2023-11-19T00:49:41;98586.72;;;2.87
40199;BMP280;25906;43.536;26.068;2023-11-19T00:52:28;98590.41;;;2.82
40199;BMP280;25906;43.536;26.068;2023-11-19T00:55:13;98589.69;;;2.89
40199;BMP280;25906;43.536;26.068;2023-11-19T00:57:59;98590.47;;;3.00
40199;BMP280;25906;43.536;26.068;2023-11-19T01:00:44;98594.22;;;2.92
40199;BMP280;25906;43.536;26.068;2023-11-19T01:03:30;98592.69;;;2.94
40199;BMP280;25906;43.536;26.068;2023-11-19T01:06:26;98593.09;;;2.93
40199;BMP280;25906;43.536;26.068;2023-11-19T01:09:12;98588.25;;;3.02
40199;BMP280;25906;43.536;26.068;2023-11-19T01:11:58;98596.16;;;3.16
40199;BMP280;25906;43.536;26.068;2023-11-19T01:14:45;98591.56;;;2.95
40199;BMP280;25906;43.536;26.068;2023-11-19T01:17:31;98590.09;;;2.94
40199;BMP280;25906;43.536;26.068;2023-11-19T01:20:17;98585.59;;;2.88
40199;BMP280;25906;43.536;26.068;2023-11-19T01:23:02;98590.47;;;3.03
40199;BMP280;25906;43.536;26.068;2023-11-19T01:25:48;98596.06;;;2.91
40199;BMP280;25906;43.536;26.068;2023-11-19T01:28:33;98591.97;;;2.97
40199;BMP280;25906;43.536;26.068;2023-11-19T01:31:19;98595.00;;;3.03
40199;BMP280;25906;43.536;26.068;2023-11-19T01:34:04;98595.72;;;3.03
40199;BMP280;25906;43.536;26.068;2023-11-19T01:36:50;98598.31;;;3.03
40199;BMP280;25906;43.536;26.068;2023-11-19T01:39:36;98597.63;;;3.13
40199;BMP280;25906;43.536;26.068;2023-11-19T01:42:21;98592.78;;;3.12
40199;BMP280;25906;43.536;26.068;2023-11-19T01:45:07;98598.81;;;3.27
40199;BMP280;25906;43.536;26.068;2023-11-19T01:47:55;98602.13;;;3.27
40199;BMP280;25906;43.536;26.068;2023-11-19T01:50:40;98595.47;;;3.33
40199;BMP280;25906;43.536;26.068;2023-11-19T01:53:27;98591.00;;;3.48
40199;BMP280;25906;43.536;26.068;2023-11-19T01:56:14;98582.78;;;3.53
40199;BMP280;25906;43.536;26.068;2023-11-19T01:59:01;98580.50;;;3.30
40199;BMP280;25906;43.536;26.068;2023-11-19T02:01:47;98579.78;;;3.33
40199;BMP280;25906;43.536;26.068;2023-11-19T02:04:32;98572.28;;;3.35
40199;BMP280;25906;43.536;26.068;2023-11-19T02:07:19;98576.41;;;3.43
40199;BMP280;25906;43.536;26.068;2023-11-19T02:10:07;98580.16;;;3.46
40199;BMP280;25906;43.536;26.068;2023-11-19T02:12:58;98577.94;;;3.41
40199;BMP280;25906;43.536;26.068;2023-11-19T02:15:44;98600.28;;;3.28
40199;BMP280;25906;43.536;26.068;2023-11-19T02:18:29;98604.41;;;3.25
40199;BMP280;25906;43.536;26.068;2023-11-19T02:21:15;98598.75;;;3.09
40199;BMP280;25906;43.536;26.068;2023-11-19T02:24:05;98607.72;;;3.15
40199;BMP280;25906;43.536;26.068;2023-11-19T02:27:01;98599.22;;;3.39
40199;BMP280;25906;43.536;26.068;2023-11-19T02:29:47;98601.41;;;3.27
40199;BMP280;25906;43.536;26.068;2023-11-19T02:32:33;98589.84;;;3.38
40199;BMP280;25906;43.536;26.068;2023-11-19T02:35:18;98589.44;;;3.29
40199;BMP280;25906;43.536;26.068;2023-11-19T02:38:04;98588.69;;;3.25
40199;BMP280;25906;43.536;26.068;2023-11-19T02:40:49;98589.81;;;3.17
40199;BMP280;25906;43.536;26.068;2023-11-19T02:43:35;98583.09;;;3.30
40199;BMP280;25906;43.536;26.068;2023-11-19T02:46:21;98583.91;;;3.59
40199;BMP280;25906;43.536;26.068;2023-11-19T02:49:07;98585.38;;;3.53
40199;BMP280;25906;43.536;26.068;2023-11-19T02:51:53;98590.63;;;3.42
40199;BMP280;25906;43.536;26.068;2023-11-19T02:54:38;98577.50;;;3.35
40199;BMP280;25906;43.536;26.068;2023-11-19T02:57:24;98580.91;;;3.46
40199;BMP280;25906;43.536;26.068;2023-11-19T03:00:10;98593.66;;;3.83
40199;BMP280;25906;43.536;26.068;2023-11-19T03:02:57;98593.31;;;3.88
40199;BMP280;25906;43.536;26.068;2023-11-19T03:05:55;98604.16;;;3.94
40199;BMP280;25906;43.536;26.068;2023-11-19T03:08:40;98609.38;;;3.97
40199;BMP280;25906;43.536;26.068;2023-11-19T03:11:25;98614.25;;;4.13
40199;BMP280;25906;43.536;26.068;2023-11-19T03:14:11;98622.47;;;4.12
40199;BMP280;25906;43.536;26.068;2023-11-19T03:16:57;98615.31;;;4.16
40199;BMP280;25906;43.536;26.068;2023-11-19T03:19:42;98620.22;;;4.28
40199;BMP280;25906;43.536;26.068;2023-11-19T03:22:28;98616.84;;;4.34
40199;BMP280;25906;43.536;26.068;2023-11-19T03:25:13;98622.44;;;4.36
40199;BMP280;25906;43.536;26.068;2023-11-19T03:27:59;98609.72;;;4.31
40199;BMP280;25906;43.536;26.068;2023-11-19T03:30:46;98608.22;;;4.37
40199;BMP280;25906;43.536;26.068;2023-11-19T03:33:32;98615.72;;;4.21
40199;BMP280;25906;43.536;26.068;2023-11-19T03:36:18;98606.34;;;4.38
40199;BMP280;25906;43.536;26.068;2023-11-19T03:39:03;98611.59;;;4.24
40199;BMP280;25906;43.536;26.068;2023-11-19T03:41:49;98603.31;;;4.39
40199;BMP280;25906;43.536;26.068;2023-11-19T03:44:34;98612.72;;;4.30
40199;BMP280;25906;43.536;26.068;2023-11-19T03:47:20;98609.69;;;4.49
40199;BMP280;25906;43.536;26.068;2023-11-19T03:50:06;98618.28;;;4.50
40199;BMP280;25906;43.536;26.068;2023-11-19T03:52:53;98622.75;;;4.60
40199;BMP280;25906;43.536;26.068;2023-11-19T03:55:39;98635.91;;;4.53
40199;BMP280;25906;43.536;26.068;2023-11-19T03:58:24;98639.97;;;4.57
40199;BMP280;25906;43.536;26.068;2023-11-19T04:01:13;98646.75;;;4.51
40199;BMP280;25906;43.536;26.068;2023-11-19T04:03:58;98645.63;;;4.49
40199;BMP280;25906;43.536;26.068;2023-11-19T04:06:44;98643.38;;;4.51
40199;BMP280;25906;43.536;26.068;2023-11-19T04:09:30;98650.09;;;4.59
40199;BMP280;25906;43.536;26.068;2023-11-19T04:12:18;98668.84;;;4.54
40199;BMP280;25906;43.536;26.068;2023-11-19T04:15:04;98669.16;;;4.63
40199;BMP280;25906;43.536;26.068;2023-11-19T04:17:51;98684.53;;;4.68
40199;BMP280;25906;43.536;26.068;2023-11-19T04:20:36;98689.00;;;4.74
40199;BMP280;25906;43.536;26.068;2023-11-19T04:23:23;98679.28;;;4.61
40199;BMP280;25906;43.536;26.068;2023-11-19T04:26:10;98688.28;;;4.60
40199;BMP280;25906;43.536;26.068;2023-11-19T04:28:55;98694.25;;;4.57
40199;BMP280;25906;43.536;26.068;2023-11-19T04:31:41;98704.38;;;4.65
40199;BMP280;25906;43.536;26.068;2023-11-19T04:34:26;98709.22;;;4.77
40199;BMP280;25906;43.536;26.068;2023-11-19T04:37:12;98705.09;;;4.80
40199;BMP280;25906;43.536;26.068;2023-11-19T04:39:58;98710.72;;;4.78
40199;BMP280;25906;43.536;26.068;2023-11-19T04:42:45;98709.59;;;4.76
40199;BMP280;25906;43.536;26.068;2023-11-19T04:45:30;98705.84;;;4.63
40199;BMP280;25906;43.536;26.068;2023-11-19T04:48:17;98704.72;;;4.71
40199;BMP280;25906;43.536;26.068;2023-11-19T04:51:04;98700.63;;;4.63
40199;BMP280;25906;43.536;26.068;2023-11-19T04:53:50;98694.28;;;4.53
40199;BMP280;25906;43.536;26.068;2023-11-19T04:56:36;98694.66;;;4.52
40199;BMP280;25906;43.536;26.068;2023-11-19T04:59:24;98701.72;;;4.76
40199;BMP280;25906;43.536;26.068;2023-11-19T05:02:10;98706.59;;;4.74
40199;BMP280;25906;43.536;26.068;2023-11-19T05:04:56;98709.97;;;4.78
40199;BMP280;25906;43.536;26.068;2023-11-19T05:07:41;98720.88;;;4.45
40199;BMP280;25906;43.536;26.068;2023-11-19T05:10:27;98730.59;;;4.48
40199;BMP280;25906;43.536;26.068;2023-11-19T05:13:12;98738.06;;;4.63
40199;BMP280;25906;43.536;26.068;2023-11-19T05:15:58;98738.09;;;4.35
40199;BMP280;25906;43.536;26.068;2023-11-19T05:18:45;98735.06;;;4.40
40199;BMP280;25906;43.536;26.068;2023-11-19T05:21:30;98739.94;;;4.63
40199;BMP280;25906;43.536;26.068;2023-11-19T05:24:16;98738.84;;;4.46
40199;BMP280;25906;43.536;26.068;2023-11-19T05:27:02;98742.56;;;4.34
40199;BMP280;25906;43.536;26.068;2023-11-19T05:29:47;98744.78;;;4.39
40199;BMP280;25906;43.536;26.068;2023-11-19T05:32:33;98753.41;;;4.40
40199;BMP280;25906;43.536;26.068;2023-11-19T05:35:18;98752.31;;;4.52
40199;BMP280;25906;43.536;26.068;2023-11-19T05:38:04;98749.69;;;4.52
40199;BMP280;25906;43.536;26.068;2023-11-19T05:40:51;98751.94;;;4.46
40199;BMP280;25906;43.536;26.068;2023-11-19T05:43:36;98746.66;;;4.64
40199;BMP280;25906;43.536;26.068;2023-11-19T05:46:22;98749.66;;;4.48
40199;BMP280;25906;43.536;26.068;2023-11-19T05:49:08;98757.16;;;4.64
40199;BMP280;25906;43.536;26.068;2023-11-19T05:51:54;98760.16;;;4.62
40199;BMP280;25906;43.536;26.068;2023-11-19T05:54:41;98753.78;;;4.63
40199;BMP280;25906;43.536;26.068;2023-11-19T05:57:26;98751.91;;;4.57
40199;BMP280;25906;43.536;26.068;2023-11-19T06:00:14;98758.28;;;4.59
40199;BMP280;25906;43.536;26.068;2023-11-19T06:03:00;98765.41;;;4.52
40199;BMP280;25906;43.536;26.068;2023-11-19T06:05:46;98763.16;;;4.47
40199;BMP280;25906;43.536;26.068;2023-11-19T06:08:32;98764.66;;;4.51
40199;BMP280;25906;43.536;26.068;2023-11-19T06:11:17;98771.75;;;4.47
40199;BMP280;25906;43.536;26.068;2023-11-19T06:14:06;98758.28;;;4.63
40199;BMP280;25906;43.536;26.068;2023-11-19T06:16:52;98759.41;;;4.55
40199;BMP280;25906;43.536;26.068;2023-11-19T06:19:37;98771.03;;;4.68
40199;BMP280;25906;43.536;26.068;2023-11-19T06:22:23;98763.16;;;4.64
40199;BMP280;25906;43.536;26.068;2023-11-19T06:25:09;98759.78;;;4.60
40199;BMP280;25906;43.536;26.068;2023-11-19T06:27:54;98755.63;;;4.80
40199;BMP280;25906;43.536;26.068;2023-11-19T06:30:40;98750.41;;;4.63
40199;BMP280;25906;43.536;26.068;2023-11-19T06:33:26;98763.50;;;4.88
40199;BMP280;25906;43.536;26.068;2023-11-19T06:36:14;98768.00;;;4.94
40199;BMP280;25906;43.536;26.068;2023-11-19T06:39:01;98772.50;;;4.90
40199;BMP280;25906;43.536;26.068;2023-11-19T06:41:47;98776.63;;;4.77
40199;BMP280;25906;43.536;26.068;2023-11-19T06:44:32;98769.91;;;4.72
40199;BMP280;25906;43.536;26.068;2023-11-19T06:47:18;98765.38;;;4.87
40199;BMP280;25906;43.536;26.068;2023-11-19T06:50:04;98765.75;;;4.89
40199;BMP280;25906;43.536;26.068;2023-11-19T06:52:50;98763.88;;;4.93
40199;BMP280;25906;43.536;26.068;2023-11-19T06:55:36;98777.38;;;4.74
40199;BMP280;25906;43.536;26.068;2023-11-19T06:58:22;98781.88;;;4.84
40199;BMP280;25906;43.536;26.068;2023-11-19T07:01:07;98780.38;;;4.72
40199;BMP280;25906;43.536;26.068;2023-11-19T07:03:53;98783.34;;;4.74
40199;BMP280;25906;43.536;26.068;2023-11-19T07:06:38;98787.50;;;4.90
40199;BMP280;25906;43.536;26.068;2023-11-19T07:09:26;98795.72;;;4.99
40199;BMP280;25906;43.536;26.068;2023-11-19T07:12:12;98791.97;;;5.00
40199;BMP280;25906;43.536;26.068;2023-11-19T07:14:58;98792.00;;;4.86
40199;BMP280;25906;43.536;26.068;2023-11-19T07:17:44;98791.22;;;4.71
40199;BMP280;25906;43.536;26.068;2023-11-19T07:20:30;98798.75;;;4.69
40199;BMP280;25906;43.536;26.068;2023-11-19T07:23:16;98811.09;;;4.72
40199;BMP280;25906;43.536;26.068;2023-11-19T07:26:04;98818.59;;;4.70
40199;BMP280;25906;43.536;26.068;2023-11-19T07:28:50;98829.41;;;4.75
40199;BMP280;25906;43.536;26.068;2023-11-19T07:31:37;98827.19;;;4.67
40199;BMP280;25906;43.536;26.068;2023-11-19T07:34:22;98831.31;;;4.86
40199;BMP280;25906;43.536;26.068;2023-11-19T07:37:08;98833.16;;;4.96
40199;BMP280;25906;43.536;26.068;2023-11-19T07:39:54;98838.41;;;4.99
40199;BMP280;25906;43.536;26.068;2023-11-19T07:42:39;98832.41;;;5.09
40199;BMP280;25906;43.536;26.068;2023-11-19T07:45:25;98838.78;;;4.98
40199;BMP280;25906;43.536;26.068;2023-11-19T07:48:12;98843.28;;;4.87
40199;BMP280;25906;43.536;26.068;2023-11-19T07:50:58;98839.94;;;4.86
40199;BMP280;25906;43.536;26.068;2023-11-19T07:53:45;98838.03;;;4.97
40199;BMP280;25906;43.536;26.068;2023-11-19T07:56:33;98841.38;;;5.30
40199;BMP280;25906;43.536;26.068;2023-11-19T07:59:19;98842.13;;;5.34
40199;BMP280;25906;43.536;26.068;2023-11-19T08:02:05;98847.75;;;5.32
40199;BMP280;25906;43.536;26.068;2023-11-19T08:04:50;98844.00;;;5.40
40199;BMP280;25906;43.536;26.068;2023-11-19T08:07:37;98845.13;;;5.29
40199;BMP280;25906;43.536;26.068;2023-11-19T08:10:22;98846.22;;;5.28
40199;BMP280;25906;43.536;26.068;2023-11-19T08:13:08;98846.16;;;5.59
40199;BMP280;25906;43.536;26.068;2023-11-19T08:15:55;98841.72;;;5.46
40199;BMP280;25906;43.536;26.068;2023-11-19T08:18:43;98838.69;;;5.51
40199;BMP280;25906;43.536;26.068;2023-11-19T08:21:29;98842.44;;;5.57
40199;BMP280;25906;43.536;26.068;2023-11-19T08:24:14;98843.16;;;5.68
40199;BMP280;25906;43.536;26.068;2023-11-19T08:27:00;98830.72;;;5.79
40199;BMP280;25906;43.536;26.068;2023-11-19T08:29:45;98841.97;;;5.87
40199;BMP280;25906;43.536;26.068;2023-11-19T08:32:31;98843.03;;;5.93
40199;BMP280;25906;43.536;26.068;2023-11-19T08:35:17;98840.75;;;5.98
40199;BMP280;25906;43.536;26.068;2023-11-19T08:38:02;98839.28;;;5.90
40199;BMP280;25906;43.536;26.068;2023-11-19T08:40:48;98834.94;;;5.55
40199;BMP280;25906;43.536;26.068;2023-11-19T08:43:33;98839.03;;;5.63
40199;BMP280;25906;43.536;26.068;2023-11-19T08:46:19;98840.50;;;5.82
40199;BMP280;25906;43.536;26.068;2023-11-19T08:49:06;98832.59;;;5.86
40199;BMP280;25906;43.536;26.068;2023-11-19T08:51:53;98836.63;;;6.04
40199;BMP280;25906;43.536;26.068;2023-11-19T08:54:42;98839.22;;;6.12
40199;BMP280;25906;43.536;26.068;2023-11-19T08:57:28;98837.63;;;6.25
40199;BMP280;25906;43.536;26.068;2023-11-19T09:00:13;98835.09;;;6.03
40199;BMP280;25906;43.536;26.068;2023-11-19T09:03:01;98838.53;;;5.97
40199;BMP280;25906;43.536;26.068;2023-11-19T09:05:47;98837.78;;;5.93
40199;BMP280;25906;43.536;26.068;2023-11-19T09:08:32;98828.00;;;6.00
40199;BMP280;25906;43.536;26.068;2023-11-19T09:11:18;98840.72;;;6.13
40199;BMP280;25906;43.536;26.068;2023-11-19T09:14:03;98842.50;;;6.26
40199;BMP280;25906;43.536;26.068;2023-11-19T09:16:49;98854.09;;;6.36
40199;BMP280;25906;43.536;26.068;2023-11-19T09:19:35;98837.34;;;6.67
40199;BMP280;25906;43.536;26.068;2023-11-19T09:22:21;98829.84;;;6.66
40199;BMP280;25906;43.536;26.068;2023-11-19T09:25:06;98831.28;;;6.70
40199;BMP280;25906;43.536;26.068;2023-11-19T09:27:52;98823.13;;;6.61
40199;BMP280;25906;43.536;26.068;2023-11-19T09:30:37;98812.97;;;6.56
40199;BMP280;25906;43.536;26.068;2023-11-19T09:33:23;98808.78;;;6.66
40199;BMP280;25906;43.536;26.068;2023-11-19T09:36:09;98821.50;;;6.71
40199;BMP280;25906;43.536;26.068;2023-11-19T09:38:55;98818.19;;;6.63
40199;BMP280;25906;43.536;26.068;2023-11-19T09:41:41;98817.31;;;6.80
40199;BMP280;25906;43.536;26.068;2023-11-19T09:44:27;98805.66;;;6.81
40199;BMP280;25906;43.536;26.068;2023-11-19T09:47:14;98806.91;;;7.07
40199;BMP280;25906;43.536;26.068;2023-11-19T09:49:59;98797.06;;;7.15
40199;BMP280;25906;43.536;26.068;2023-11-19T09:52:46;98792.94;;;7.10
40199;BMP280;25906;43.536;26.068;2023-11-19T09:55:32;98794.97;;;6.95
40199;BMP280;25906;43.536;26.068;2023-11-19T09:58:18;98794.16;;;7.06
40199;BMP280;25906;43.536;26.068;2023-11-19T10:01:03;98796.28;;;7.18
40199;BMP280;25906;43.536;26.068;2023-11-19T10:03:55;98792.41;;;7.29
40199;BMP280;25906;43.536;26.068;2023-11-19T10:06:41;98786.66;;;7.04
40199;BMP280;25906;43.536;26.068;2023-11-19T10:09:27;98776.19;;;6.97
40199;BMP280;25906;43.536;26.068;2023-11-19T10:12:13;98790.94;;;6.87
40199;BMP280;25906;43.536;26.068;2023-11-19T10:14:59;98789.66;;;6.65
40199;BMP280;25906;43.536;26.068;2023-11-19T10:17:44;98785.44;;;6.71
40199;BMP280;25906;43.536;26.068;2023-11-19T10:20:35;98789.53;;;7.17
40199;BMP280;25906;43.536;26.068;2023-11-19T10:23:22;98773.91;;;7.33
40199;BMP280;25906;43.536;26.068;2023-11-19T10:26:08;98782.31;;;7.21
40199;BMP280;25906;43.536;26.068;2023-11-19T10:28:55;98776.19;;;6.97
40199;BMP280;25906;43.536;26.068;2023-11-19T10:31:43;98777.78;;;6.87
40199;BMP280;25906;43.536;26.068;2023-11-19T10:34:40;98786.19;;;6.75
40199;BMP280;25906;43.536;26.068;2023-11-19T10:37:29;98789.94;;;6.74
40199;BMP280;25906;43.536;26.068;2023-11-19T10:40:20;98783.16;;;6.77
40199;BMP280;25906;43.536;26.068;2023-11-19T10:43:06;98791.69;;;6.88
40199;BMP280;25906;43.536;26.068;2023-11-19T10:46:09;98778.94;;;6.83
40199;BMP280;25906;43.536;26.068;2023-11-19T10:48:55;98783.91;;;6.77
40199;BMP280;25906;43.536;26.068;2023-11-19T10:51:45;98768.09;;;6.81
40199;BMP280;25906;43.536;26.068;2023-11-19T10:54:34;98767.47;;;7.04
40199;BMP280;25906;43.536;26.068;2023-11-19T10:57:21;98772.75;;;7.37
40199;BMP280;25906;43.536;26.068;2023-11-19T11:00:12;98774.22;;;7.69
40199;BMP280;25906;43.536;26.068;2023-11-19T11:03:01;98765.47;;;7.75
40199;BMP280;25906;43.536;26.068;2023-11-19T11:05:48;98759.78;;;7.50
40199;BMP280;25906;43.536;26.068;2023-11-19T11:08:36;98753.06;;;7.49
40199;BMP280;25906;43.536;26.068;2023-11-19T11:11:22;98759.44;;;7.48
40199;BMP280;25906;43.536;26.068;2023-11-19T11:14:13;98768.44;;;7.51
40199;BMP280;25906;43.536;26.068;2023-11-19T11:17:02;98761.47;;;7.91
40199;BMP280;25906;43.536;26.068;2023-11-19T11:19:48;98763.25;;;7.74
40199;BMP280;25906;43.536;26.068;2023-11-19T11:22:44;98760.28;;;7.72
40199;BMP280;25906;43.536;26.068;2023-11-19T11:25:49;98739.28;;;7.92
40199;BMP280;25906;43.536;26.068;2023-11-19T11:31:50;98729.72;;;8.01
40199;BMP280;25906;43.536;26.068;2023-11-19T11:37:33;98722.78;;;8.11
40199;BMP280;25906;43.536;26.068;2023-11-19T11:40:20;98730.34;;;8.09
40199;BMP280;25906;43.536;26.068;2023-11-19T11:43:44;98713.97;;;8.21
40199;BMP280;25906;43.536;26.068;2023-11-19T11:49:24;98731.84;;;8.33
40199;BMP280;25906;43.536;26.068;2023-11-19T11:52:10;98732.38;;;8.24
40199;BMP280;25906;43.536;26.068;2023-11-19T11:55:04;98734.38;;;8.17
40199;BMP280;25906;43.536;26.068;2023-11-19T11:57:51;98740.66;;;8.23
40199;BMP280;25906;43.536;26.068;2023-11-19T12:00:40;98733.84;;;8.25
40199;BMP280;25906;43.536;26.068;2023-11-19T12:03:27;98738.03;;;8.23
40199;BMP280;25906;43.536;26.068;2023-11-19T12:06:13;98752.44;;;8.18
40199;BMP280;25906;43.536;26.068;2023-11-19T12:08:59;98751.28;;;8.19
40199;BMP280;25906;43.536;26.068;2023-11-19T12:11:47;98745.16;;;8.26
40199;BMP280;25906;43.536;26.068;2023-11-19T12:17:47;98754.50;;;7.80
40199;BMP280;25906;43.536;26.068;2023-11-19T12:20:34;98743.25;;;7.76
40199;BMP280;25906;43.536;26.068;2023-11-19T12:23:23;98736.84;;;7.77
40199;BMP280;25906;43.536;26.068;2023-11-19T12:26:21;98724.44;;;8.01
40199;BMP280;25906;43.536;26.068;2023-11-19T12:29:15;98726.50;;;8.13
40199;BMP280;25906;43.536;26.068;2023-11-19T12:32:01;98721.13;;;8.20
40199;BMP280;25906;43.536;26.068;2023-11-19T12:34:48;98720.69;;;8.25
40199;BMP280;25906;43.536;26.068;2023-11-19T12:37:33;98718.78;;;8.26
40199;BMP280;25906;43.536;26.068;2023-11-19T12:40:23;98720.94;;;8.31
40199;BMP280;25906;43.536;26.068;2023-11-19T12:43:09;98717.44;;;8.38
40199;BMP280;25906;43.536;26.068;2023-11-19T12:45:54;98727.59;;;8.39
40199;BMP280;25906;43.536;26.068;2023-11-19T12:48:41;98729.94;;;8.34
40199;BMP280;25906;43.536;26.068;2023-11-19T12:51:33;98727.94;;;8.41
40199;BMP280;25906;43.536;26.068;2023-11-19T12:54:18;98730.84;;;8.27
40199;BMP280;25906;43.536;26.068;2023-11-19T12:57:05;98722.72;;;8.14
40199;BMP280;25906;43.536;26.068;2023-11-19T12:59:55;98728.75;;;8.15
40199;BMP280;25906;43.536;26.068;2023-11-19T13:02:48;98726.31;;;8.04
40199;BMP280;25906;43.536;26.068;2023-11-19T13:05:34;98724.69;;;8.10
40199;BMP280;25906;43.536;26.068;2023-11-19T13:08:19;98709.25;;;8.09
40199;BMP280;25906;43.536;26.068;2023-11-19T13:11:05;98706.53;;;8.16
40199;BMP280;25906;43.536;26.068;2023-11-19T13:14:04;98712.00;;;8.02
40199;BMP280;25906;43.536;26.068;2023-11-19T13:16:51;98713.97;;;7.98
40199;BMP280;25906;43.536;26.068;2023-11-19T13:19:36;98719.31;;;7.91
40199;BMP280;25906;43.536;26.068;2023-11-19T13:22:21;98714.88;;;7.88
40199;BMP280;25906;43.536;26.068;2023-11-19T13:25:07;98718.56;;;7.94
40199;BMP280;25906;43.536;26.068;2023-11-19T13:27:53;98721.97;;;7.91
40199;BMP280;25906;43.536;26.068;2023-11-19T13:30:39;98724.28;;;7.89
40199;BMP280;25906;43.536;26.068;2023-11-19T13:33:24;98725.34;;;7.91
40199;BMP280;25906;43.536;26.068;2023-11-19T13:36:10;98718.13;;;7.72
40199;BMP280;25906;43.536;26.068;2023-11-19T13:38:55;98717.00;;;7.73
40199;BMP280;25906;43.536;26.068;2023-11-19T13:41:44;98725.03;;;7.89
40199;BMP280;25906;43.536;26.068;2023-11-19T13:44:29;98709.47;;;7.71
40199;BMP280;25906;43.536;26.068;2023-11-19T13:47:14;98713.78;;;7.85
40199;BMP280;25906;43.536;26.068;2023-11-19T13:50:00;98718.06;;;7.75
40199;BMP280;25906;43.536;26.068;2023-11-19T13:52:45;98710.72;;;7.63
40199;BMP280;25906;43.536;26.068;2023-11-19T13:55:32;98710.63;;;7.67
40199;BMP280;25906;43.536;26.068;2023-11-19T13:58:18;98713.84;;;7.55
40199;BMP280;25906;43.536;26.068;2023-11-19T14:01:03;98724.38;;;7.55
40199;BMP280;25906;43.536;26.068;2023-11-19T14:03:49;98726.59;;;7.56
40199;BMP280;25906;43.536;26.068;2023-11-19T14:06:35;98734.56;;;7.53
40199;BMP280;25906;43.536;26.068;2023-11-19T14:09:20;98732.06;;;7.42
40199;BMP280;25906;43.536;26.068;2023-11-19T14:12:06;98732.06;;;7.42
40199;BMP280;25906;43.536;26.068;2023-11-19T14:14:51;98738.78;;;7.43
40199;BMP280;25906;43.536;26.068;2023-11-19T14:17:37;98732.94;;;7.32
40199;BMP280;25906;43.536;26.068;2023-11-19T14:20:22;98712.69;;;7.29
40199;BMP280;25906;43.536;26.068;2023-11-19T14:23:08;98715.66;;;7.31
40199;BMP280;25906;43.536;26.068;2023-11-19T14:25:54;98710.59;;;7.17
40199;BMP280;25906;43.536;26.068;2023-11-19T14:28:39;98714.94;;;7.27
40199;BMP280;25906;43.536;26.068;2023-11-19T14:31:27;98727.06;;;7.21
40199;BMP280;25906;43.536;26.068;2023-11-19T14:34:13;98733.19;;;7.11
40199;BMP280;25906;43.536;26.068;2023-11-19T14:36:59;98729.56;;;7.01
40199;BMP280;25906;43.536;26.068;2023-11-19T14:39:45;98719.81;;;6.98
40199;BMP280;25906;43.536;26.068;2023-11-19T14:42:31;98725.44;;;7.00
40199;BMP280;25906;43.536;26.068;2023-11-19T14:45:17;98726.28;;;6.93
40199;BMP280;25906;43.536;26.068;2023-11-19T14:48:03;98728.91;;;6.90
40199;BMP280;25906;43.536;26.068;2023-11-19T14:50:48;98725.16;;;6.87
40199;BMP280;25906;43.536;26.068;2023-11-19T14:53:35;98725.97;;;6.84
40199;BMP280;25906;43.536;26.068;2023-11-19T14:56:20;98730.91;;;6.79
40199;BMP280;25906;43.536;26.068;2023-11-19T14:59:05;98740.81;;;6.64
40199;BMP280;25906;43.536;26.068;2023-11-19T15:01:51;98745.00;;;6.58
40199;BMP280;25906;43.536;26.068;2023-11-19T15:04:38;98749.50;;;6.61
40199;BMP280;25906;43.536;26.068;2023-11-19T15:07:23;98760.47;;;6.52
40199;BMP280;25906;43.536;26.068;2023-11-19T15:10:09;98764.22;;;6.48
40199;BMP280;25906;43.536;26.068;2023-11-19T15:12:57;98754.97;;;6.36
40199;BMP280;25906;43.536;26.068;2023-11-19T15:15:43;98757.22;;;6.31
40199;BMP280;25906;43.536;26.068;2023-11-19T15:18:28;98757.22;;;6.31
40199;BMP280;25906;43.536;26.068;2023-11-19T15:21:14;98753.47;;;6.32
40199;BMP280;25906;43.536;26.068;2023-11-19T15:24:00;98750.50;;;6.30
40199;BMP280;25906;43.536;26.068;2023-11-19T15:26:46;98746.31;;;6.36
40199;BMP280;25906;43.536;26.068;2023-11-19T15:29:31;98756.53;;;6.27
40199;BMP280;25906;43.536;26.068;2023-11-19T15:32:19;98750.91;;;6.28
40199;BMP280;25906;43.536;26.068;2023-11-19T15:35:05;98753.91;;;6.23
40199;BMP280;25906;43.536;26.068;2023-11-19T15:37:52;98749.69;;;6.36
40199;BMP280;25906;43.536;26.068;2023-11-19T15:40:38;98759.84;;;6.31
40199;BMP280;25906;43.536;26.068;2023-11-19T15:43:23;98751.28;;;6.27
40199;BMP280;25906;43.536;26.068;2023-11-19T15:46:09;98745.94;;;6.34
40199;BMP280;25906;43.536;26.068;2023-11-19T15:48:56;98741.06;;;6.32
40199;BMP280;25906;43.536;26.068;2023-11-19T15:51:41;98737.69;;;6.35
40199;BMP280;25906;43.536;26.068;2023-11-19T15:54:27;98738.06;;;6.30
40199;BMP280;25906;43.536;26.068;2023-11-19T15:57:13;98742.94;;;6.32
40199;BMP280;25906;43.536;26.068;2023-11-19T15:59:58;98742.94;;;6.35
40199;BMP280;25906;43.536;26.068;2023-11-19T16:02:44;98740.69;;;6.34
40199;BMP280;25906;43.536;26.068;2023-11-19T16:05:29;98746.06;;;6.16
40199;BMP280;25906;43.536;26.068;2023-11-19T16:08:15;98738.81;;;6.31
40199;BMP280;25906;43.536;26.068;2023-11-19T16:11:01;98749.72;;;6.33
40199;BMP280;25906;43.536;26.068;2023-11-19T16:13:46;98750.91;;;6.25